createdAt,value
2023-02-13T00:00:00.981Z,54.07
2023-02-13T00:05:03.464Z,54.13
2023-02-13T00:07:31.136Z,54.10
2023-02-13T00:09:58.893Z,54.08
2023-02-13T00:12:26.706Z,54.04
2023-02-13T00:14:54.735Z,54.21
2023-02-13T00:17:24.555Z,54.12
2023-02-13T00:19:57.506Z,54.21
2023-02-13T00:22:25.245Z,54.22
2023-02-13T00:24:54.129Z,53.96
2023-02-13T00:27:21.774Z,54.28
2023-02-13T00:29:50.578Z,53.80
2023-02-13T00:32:18.275Z,54.03
2023-02-13T00:34:48.516Z,54.32
2023-02-13T00:37:16.188Z,54.18
2023-02-13T00:39:43.976Z,54.70
2023-02-13T00:42:11.629Z,54.63
2023-02-13T00:44:39.649Z,54.68
2023-02-13T00:47:07.348Z,54.74
2023-02-13T00:49:35.155Z,54.71
2023-02-13T00:52:04.359Z,54.88
2023-02-13T00:54:32.255Z,54.90
2023-02-13T00:56:59.916Z,54.52
2023-02-13T00:59:27.691Z,54.80
2023-02-13T01:01:55.434Z,54.93
2023-02-13T01:04:23.104Z,55.03
2023-02-13T01:06:50.974Z,54.91
2023-02-13T01:09:19.949Z,55.31
2023-02-13T01:11:47.762Z,55.28
2023-02-13T01:14:15.392Z,55.25
2023-02-13T01:16:43.481Z,55.11
2023-02-13T01:19:11.166Z,55.20
2023-02-13T01:21:39.125Z,55.23
2023-02-13T01:24:07.305Z,55.13
2023-02-13T01:26:36.559Z,55.21
2023-02-13T01:29:04.317Z,55.32
2023-02-13T01:31:32.380Z,55.34
2023-02-13T01:34:00.324Z,54.96
2023-02-13T01:36:28.224Z,55.17
2023-02-13T01:38:56.550Z,54.88
2023-02-13T01:41:24.537Z,55.63
2023-02-13T01:43:54.666Z,55.45
2023-02-13T01:46:30.308Z,55.36
2023-02-13T01:49:00.324Z,55.63
2023-02-13T01:51:30.244Z,55.44
2023-02-13T01:56:55.160Z,55.26
2023-02-13T01:59:25.946Z,55.61
2023-02-13T02:01:53.714Z,55.36
2023-02-13T02:04:23.448Z,55.39
2023-02-13T02:06:53.272Z,55.35
2023-02-13T02:09:22.328Z,55.51
2023-02-13T02:11:52.727Z,55.18
2023-02-13T02:14:21.298Z,55.70
2023-02-13T02:16:50.674Z,55.20
2023-02-13T02:19:22.371Z,55.46
2023-02-13T02:22:26.695Z,55.71
2023-02-13T02:25:18.426Z,55.04
2023-02-13T02:28:12.380Z,55.19
2023-02-13T02:31:01.311Z,55.26
2023-02-13T02:33:34.182Z,55.97
2023-02-13T02:36:10.437Z,55.25
2023-02-13T02:38:45.526Z,55.44
2023-02-13T02:41:39.926Z,55.04
2023-02-13T02:44:13.982Z,54.64
2023-02-13T02:47:09.077Z,55.09
2023-02-13T02:49:56.630Z,55.02
2023-02-13T02:52:27.190Z,55.34
2023-02-13T02:55:07.678Z,55.05
2023-02-13T02:57:51.164Z,55.24
2023-02-13T03:00:36.651Z,55.65
2023-02-13T03:03:22.077Z,55.46
2023-02-13T03:06:08.534Z,55.55
2023-02-13T03:08:54.024Z,55.50
2023-02-13T03:11:40.010Z,55.46
2023-02-13T03:14:08.431Z,55.28
2023-02-13T03:17:08.649Z,55.42
2023-02-13T03:20:01.892Z,55.39
2023-02-13T03:22:40.283Z,55.81
2023-02-13T03:25:35.789Z,55.44
2023-02-13T03:31:34.426Z,55.54
2023-02-13T03:34:03.819Z,55.47
2023-02-13T03:36:53.526Z,55.71
2023-02-13T03:39:37.221Z,55.49
2023-02-13T03:42:06.206Z,55.58
2023-02-13T03:44:38.988Z,55.53
2023-02-13T03:47:07.479Z,55.33
2023-02-13T03:50:06.751Z,55.25
2023-02-13T03:52:36.802Z,55.46
2023-02-13T03:55:27.390Z,55.34
2023-02-13T03:58:20.935Z,55.52
2023-02-13T04:00:51.370Z,55.59
2023-02-13T04:03:22.393Z,55.72
2023-02-13T04:05:51.163Z,55.77
2023-02-13T04:08:18.886Z,55.61
2023-02-13T04:10:52.167Z,55.90
2023-02-13T04:13:21.546Z,55.82
2023-02-13T04:15:51.265Z,55.86
2023-02-13T04:18:22.424Z,56.12
2023-02-13T04:20:50.277Z,56.17
2023-02-13T04:23:17.932Z,56.50
2023-02-13T04:25:47.301Z,56.11
2023-02-13T04:28:16.336Z,56.21
2023-02-13T04:30:44.321Z,56.11
2023-02-13T04:33:12.056Z,56.74
2023-02-13T04:35:39.894Z,56.55
2023-02-13T04:38:07.717Z,56.30
2023-02-13T04:40:35.548Z,56.35
2023-02-13T04:43:03.265Z,56.42
2023-02-13T04:45:32.688Z,56.07
2023-02-13T04:48:00.794Z,56.02
2023-02-13T04:50:28.656Z,55.64
2023-02-13T04:52:56.577Z,55.83
2023-02-13T04:55:24.517Z,56.03
2023-02-13T04:57:53.213Z,55.69
2023-02-13T05:00:22.435Z,55.65
2023-02-13T05:02:51.666Z,55.78
2023-02-13T05:05:19.356Z,55.63
2023-02-13T05:07:47.264Z,55.59
2023-02-13T05:10:14.886Z,55.93
2023-02-13T05:12:42.930Z,55.74
2023-02-13T05:15:10.998Z,56.11
2023-02-13T05:17:38.768Z,56.23
2023-02-13T05:20:09.192Z,56.03
2023-02-13T05:22:54.391Z,56.09
2023-02-13T05:25:22.266Z,55.90
2023-02-13T05:27:49.918Z,55.94
2023-02-13T05:30:17.874Z,55.80
2023-02-13T05:32:45.892Z,55.69
2023-02-13T05:35:15.126Z,55.84
2023-02-13T05:37:42.837Z,55.83
2023-02-13T05:40:13.344Z,56.14
2023-02-13T05:42:41.304Z,55.86
2023-02-13T05:45:11.371Z,56.02
2023-02-13T05:47:39.100Z,56.37
2023-02-13T05:50:09.207Z,56.26
2023-02-13T05:52:38.257Z,55.86
2023-02-13T05:55:06.803Z,56.23
2023-02-13T05:57:34.887Z,56.48
2023-02-13T06:00:03.061Z,56.54
2023-02-13T06:05:05.173Z,56.86
2023-02-13T06:07:32.821Z,56.21
2023-02-13T06:10:02.012Z,56.18
2023-02-13T06:12:29.677Z,55.74
2023-02-13T06:14:57.553Z,56.42
2023-02-13T06:17:25.244Z,57.02
2023-02-13T06:19:53.099Z,56.43
2023-02-13T06:22:20.838Z,56.56
2023-02-13T06:24:48.673Z,56.25
2023-02-13T06:27:17.667Z,56.49
2023-02-13T06:29:45.442Z,56.62
2023-02-13T06:32:13.181Z,56.84
2023-02-13T06:34:40.976Z,57.37
2023-02-13T06:37:08.650Z,56.56
2023-02-13T06:39:36.483Z,56.60
2023-02-13T06:42:04.202Z,57.34
2023-02-13T06:44:33.448Z,57.06
2023-02-13T06:47:01.248Z,57.16
2023-02-13T06:49:29.208Z,57.14
2023-02-13T06:51:56.871Z,56.77
2023-02-13T06:54:37.128Z,58.03
2023-02-13T06:57:12.266Z,57.06
2023-02-13T06:59:41.475Z,57.37
2023-02-13T07:02:10.539Z,57.13
2023-02-13T07:04:38.267Z,57.49
2023-02-13T07:07:06.207Z,57.16
2023-02-13T07:09:33.922Z,57.92
2023-02-13T07:12:04.015Z,58.02
2023-02-13T07:14:31.720Z,57.13
2023-02-13T07:17:03.366Z,57.20
2023-02-13T07:19:31.021Z,57.49
2023-02-13T07:21:58.894Z,57.18
2023-02-13T07:24:26.622Z,57.31
2023-02-13T07:26:54.427Z,57.14
2023-02-13T07:29:22.073Z,57.67
2023-02-13T07:31:49.904Z,57.89
2023-02-13T07:34:18.988Z,57.83
2023-02-13T07:36:46.835Z,56.80
2023-02-13T07:39:14.493Z,57.86
2023-02-13T07:41:42.361Z,56.39
2023-02-13T07:44:10.130Z,55.92
2023-02-13T07:46:38.076Z,54.66
2023-02-13T07:49:05.761Z,52.92
2023-02-13T07:51:35.115Z,51.75
2023-02-13T07:54:03.019Z,50.08
2023-02-13T07:56:30.702Z,48.55
2023-02-13T07:58:58.543Z,47.11
2023-02-13T08:01:26.853Z,45.56
2023-02-13T08:03:54.813Z,44.25
2023-02-13T08:06:22.532Z,43.12
2023-02-13T08:09:12.581Z,42.00
2023-02-13T08:11:54.492Z,40.73
2023-02-13T08:14:22.293Z,39.61
2023-02-13T08:16:51.566Z,38.73
2023-02-13T08:19:19.725Z,37.49
2023-02-13T08:21:47.438Z,36.50
2023-02-13T08:24:16.496Z,35.52
2023-02-13T08:26:44.480Z,34.76
2023-02-13T08:29:12.340Z,33.15
2023-02-13T08:31:40.167Z,33.06
2023-02-13T08:34:07.862Z,32.58
2023-02-13T08:36:35.691Z,32.40
2023-02-13T08:39:03.352Z,31.32
2023-02-13T08:41:32.625Z,30.80
2023-02-13T08:44:00.281Z,30.14
2023-02-13T08:46:28.212Z,29.36
2023-02-13T08:48:55.969Z,28.33
2023-02-13T08:51:23.746Z,27.41
2023-02-13T08:56:46.600Z,27.03
2023-02-13T08:59:14.321Z,26.26
2023-02-13T09:01:42.197Z,26.38
2023-02-13T09:04:10.142Z,25.54
2023-02-13T09:06:38.102Z,25.37
2023-02-13T09:09:05.972Z,24.01
2023-02-13T09:11:35.133Z,24.36
2023-02-13T09:14:02.827Z,24.03
2023-02-13T09:16:30.698Z,23.07
2023-02-13T09:18:58.390Z,22.39
2023-02-13T09:21:26.140Z,22.10
2023-02-13T09:23:55.234Z,21.89
2023-02-13T09:26:23.345Z,21.46
2023-02-13T09:28:52.534Z,20.94
2023-02-13T09:31:21.611Z,20.98
2023-02-13T09:33:49.914Z,19.93
2023-02-13T09:36:19.283Z,19.82
2023-02-13T09:38:47.464Z,19.39
2023-02-13T09:41:17.360Z,18.62
2023-02-13T09:43:46.223Z,18.39
2023-02-13T09:46:16.862Z,18.78
2023-02-13T09:48:45.488Z,18.42
2023-02-13T09:51:15.136Z,17.69
2023-02-13T09:53:43.520Z,17.48
2023-02-13T09:56:14.490Z,17.64
2023-02-13T09:58:45.777Z,16.98
2023-02-13T10:01:20.219Z,16.80
2023-02-13T10:03:49.369Z,16.77
2023-02-13T10:06:20.887Z,16.23
2023-02-13T10:08:59.393Z,15.76
2023-02-13T10:12:08.577Z,15.28
2023-02-13T10:14:39.444Z,14.85
2023-02-13T10:17:10.430Z,14.58
2023-02-13T10:19:41.234Z,14.82
2023-02-13T10:22:15.266Z,14.18
2023-02-13T10:24:45.047Z,13.55
2023-02-13T10:27:21.671Z,13.44
2023-02-13T10:30:09.580Z,13.29
2023-02-13T10:32:43.247Z,13.55
2023-02-13T10:35:19.324Z,13.04
2023-02-13T10:37:51.209Z,12.69
2023-02-13T10:40:19.461Z,12.31
2023-02-13T10:42:48.031Z,12.34
2023-02-13T10:45:24.774Z,12.28
2023-02-13T10:47:59.292Z,12.11
2023-02-13T10:50:29.374Z,11.96
2023-02-13T10:53:03.444Z,11.77
2023-02-13T10:56:01.432Z,11.57
2023-02-13T10:58:33.685Z,11.08
2023-02-13T11:01:04.319Z,11.03
2023-02-13T11:03:33.554Z,10.80
2023-02-13T11:06:01.396Z,11.50
2023-02-13T11:08:32.145Z,10.44
2023-02-13T11:10:59.897Z,10.71
2023-02-13T11:13:28.337Z,10.08
2023-02-13T11:16:01.766Z,10.39
2023-02-13T11:18:30.892Z,10.00
2023-02-13T11:21:07.886Z,9.87
2023-02-13T11:23:43.021Z,10.30
2023-02-13T11:26:12.342Z,9.85
2023-02-13T11:28:41.042Z,9.67
2023-02-13T11:31:14.301Z,9.55
2023-02-13T11:33:42.216Z,9.44
2023-02-13T11:36:12.990Z,9.12
2023-02-13T11:38:40.692Z,8.78
2023-02-13T11:41:21.435Z,8.85
2023-02-13T11:43:50.509Z,8.73
2023-02-13T11:46:20.584Z,9.00
2023-02-13T11:49:01.549Z,8.08
2023-02-13T11:51:43.616Z,8.57
2023-02-13T11:54:30.216Z,7.60
2023-02-13T11:57:04.879Z,7.61
2023-02-13T11:59:34.726Z,7.48
2023-02-13T12:02:14.746Z,7.41
2023-02-13T12:07:23.549Z,7.64
2023-02-13T12:09:54.373Z,7.31
2023-02-13T12:12:26.825Z,7.09
2023-02-13T12:14:54.642Z,7.18
2023-02-13T12:17:31.273Z,6.95
2023-02-13T12:19:59.918Z,6.84
2023-02-13T12:22:43.506Z,6.68
2023-02-13T12:25:27.510Z,6.46
2023-02-13T12:28:05.008Z,6.52
2023-02-13T12:30:57.603Z,6.50
2023-02-13T12:33:37.983Z,6.89
2023-02-13T12:36:08.571Z,6.91
2023-02-13T12:38:50.577Z,6.51
2023-02-13T12:41:20.117Z,6.82
2023-02-13T12:44:06.624Z,7.11
2023-02-13T12:46:39.765Z,7.96
2023-02-13T12:49:18.094Z,8.67
2023-02-13T12:51:49.780Z,9.41
2023-02-13T12:54:29.977Z,10.27
2023-02-13T12:57:04.399Z,11.58
2023-02-13T12:59:37.429Z,13.14
2023-02-13T13:02:37.523Z,14.09
2023-02-13T13:05:15.396Z,15.81
2023-02-13T13:07:51.883Z,16.93
2023-02-13T13:10:34.023Z,17.78
2023-02-13T13:13:06.071Z,18.09
2023-02-13T13:15:36.223Z,19.23
2023-02-13T13:18:09.540Z,20.06
2023-02-13T13:20:59.026Z,20.69
2023-02-13T13:23:30.829Z,20.95
2023-02-13T13:26:07.372Z,21.54
2023-02-13T13:31:06.773Z,22.05
2023-02-13T13:33:34.885Z,22.50
2023-02-13T13:36:05.044Z,22.94
2023-02-13T13:38:43.186Z,23.44
2023-02-13T13:41:16.464Z,23.06
2023-02-13T13:43:54.307Z,23.45
2023-02-13T13:46:22.973Z,23.42
2023-02-13T13:49:01.821Z,24.50
2023-02-13T13:54:25.373Z,24.51
2023-02-13T13:57:12.503Z,24.38
2023-02-13T14:00:25.989Z,24.62
2023-02-13T14:03:22.362Z,25.00
2023-02-13T14:06:11.510Z,25.12
2023-02-13T14:09:07.086Z,25.23
2023-02-13T14:11:36.735Z,25.15
2023-02-13T14:14:55.197Z,25.70
2023-02-13T14:18:01.293Z,25.43
2023-02-13T14:20:37.133Z,26.30
2023-02-13T14:23:09.564Z,26.41
2023-02-13T14:25:38.519Z,26.42
2023-02-13T14:28:12.050Z,26.61
2023-02-13T14:30:41.341Z,26.70
2023-02-13T14:33:23.826Z,26.82
2023-02-13T14:36:01.878Z,26.89
2023-02-13T14:38:29.694Z,26.88
2023-02-13T14:40:57.866Z,26.99
2023-02-13T14:43:45.644Z,27.10
2023-02-13T14:46:27.543Z,27.44
2023-02-13T14:48:58.500Z,27.27
2023-02-13T14:51:30.616Z,27.40
2023-02-13T14:54:01.209Z,27.50
2023-02-13T14:56:30.557Z,27.62
2023-02-13T14:59:02.568Z,27.90
2023-02-13T15:01:35.865Z,27.80
2023-02-13T15:04:08.471Z,27.75
2023-02-13T15:06:40.567Z,27.83
2023-02-13T15:09:28.621Z,28.23
2023-02-13T15:11:58.641Z,27.87
2023-02-13T15:14:31.507Z,28.01
2023-02-13T15:17:02.962Z,28.03
2023-02-13T15:19:30.885Z,28.08
2023-02-13T15:22:09.358Z,27.92
2023-02-13T15:24:41.636Z,28.23
2023-02-13T15:27:09.318Z,27.99
2023-02-13T15:29:49.173Z,28.28
2023-02-13T15:32:22.003Z,28.86
2023-02-13T15:34:49.893Z,28.82
2023-02-13T15:37:22.374Z,28.61
2023-02-13T15:39:50.190Z,29.01
2023-02-13T15:42:18.044Z,29.07
2023-02-13T15:44:47.754Z,29.49
2023-02-13T15:47:27.491Z,29.29
2023-02-13T15:49:56.544Z,29.55
2023-02-13T15:52:27.327Z,29.30
2023-02-13T15:54:55.947Z,29.87
2023-02-13T15:57:24.340Z,29.69
2023-02-13T15:59:52.299Z,29.79
2023-02-13T16:02:22.061Z,29.99
2023-02-13T16:04:51.553Z,30.28
2023-02-13T16:07:21.226Z,30.33
2023-02-13T16:09:49.089Z,30.52
2023-02-13T16:12:20.611Z,30.77
2023-02-13T16:14:52.299Z,30.64
2023-02-13T16:17:24.096Z,30.79
2023-02-13T16:19:57.269Z,30.96
2023-02-13T16:22:34.746Z,31.10
2023-02-13T16:25:07.639Z,31.21
2023-02-13T16:27:35.403Z,31.19
2023-02-13T16:30:05.034Z,31.12
2023-02-13T16:32:34.058Z,31.37
2023-02-13T16:35:18.011Z,31.48
2023-02-13T16:37:52.012Z,31.64
2023-02-13T16:40:40.477Z,31.99
2023-02-13T16:43:44.300Z,32.17
2023-02-13T16:46:37.132Z,32.44
2023-02-13T16:49:18.936Z,33.10
2023-02-13T16:51:48.520Z,33.56
2023-02-13T16:54:34.367Z,33.96
2023-02-13T16:57:03.647Z,34.34
2023-02-13T16:59:43.266Z,35.02
2023-02-13T17:02:20.758Z,34.92
2023-02-13T17:04:51.236Z,35.47
2023-02-13T17:07:21.142Z,35.50
2023-02-13T17:09:55.332Z,35.57
2023-02-13T17:12:23.029Z,35.92
2023-02-13T17:14:51.107Z,36.44
2023-02-13T17:17:19.759Z,36.49
2023-02-13T17:19:47.586Z,36.95
2023-02-13T17:22:34.061Z,36.96
2023-02-13T17:25:04.038Z,37.34
2023-02-13T17:27:31.753Z,37.42
2023-02-13T17:29:59.970Z,37.46
2023-02-13T17:32:28.448Z,37.57
2023-02-13T17:34:56.216Z,37.84
2023-02-13T17:37:25.439Z,38.29
2023-02-13T17:39:53.601Z,38.11
2023-02-13T17:42:25.265Z,38.24
2023-02-13T17:44:53.226Z,38.27
2023-02-13T17:47:20.991Z,39.00
2023-02-13T17:49:49.132Z,38.85
2023-02-13T17:52:18.186Z,39.14
2023-02-13T17:54:46.451Z,39.38
2023-02-13T17:57:14.920Z,39.32
2023-02-13T17:59:44.528Z,39.47
2023-02-13T18:02:14.389Z,40.23
2023-02-13T18:07:11.016Z,40.07
2023-02-13T18:09:39.850Z,40.23
2023-02-13T18:12:07.880Z,40.42
2023-02-13T18:14:35.860Z,40.82
2023-02-13T18:17:04.902Z,40.97
2023-02-13T18:19:32.608Z,41.38
2023-02-13T18:22:00.436Z,40.94
2023-02-13T18:24:31.348Z,41.65
2023-02-13T18:26:59.036Z,41.44
2023-02-13T18:29:26.812Z,42.01
2023-02-13T18:31:54.763Z,42.06
2023-02-13T18:34:24.394Z,42.29
2023-02-13T18:36:52.231Z,42.53
2023-02-13T18:39:19.984Z,42.39
2023-02-13T18:41:47.705Z,42.71
2023-02-13T18:44:27.036Z,42.83
2023-02-13T18:46:56.234Z,42.96
2023-02-13T18:49:25.336Z,43.05
2023-02-13T18:51:53.149Z,43.51
2023-02-13T18:54:21.286Z,43.65
2023-02-13T18:56:48.988Z,43.82
2023-02-13T18:59:18.452Z,43.84
2023-02-13T19:01:46.736Z,44.04
2023-02-13T19:04:14.498Z,44.03
2023-02-13T19:06:43.970Z,44.54
2023-02-13T19:09:11.788Z,44.69
2023-02-13T19:11:39.490Z,45.16
2023-02-13T19:14:07.470Z,44.83
2023-02-13T19:16:35.752Z,44.73
2023-02-13T19:19:04.540Z,45.13
2023-02-13T19:21:32.868Z,45.04
2023-02-13T19:24:02.580Z,45.21
2023-02-13T19:26:30.364Z,45.53
2023-02-13T19:28:58.606Z,45.46
2023-02-13T19:31:27.665Z,45.78
2023-02-13T19:33:55.744Z,46.01
2023-02-13T19:36:24.315Z,46.22
2023-02-13T19:38:54.733Z,46.27
2023-02-13T19:41:23.931Z,46.32
2023-02-13T19:43:53.389Z,46.47
2023-02-13T19:46:21.890Z,46.57
2023-02-13T19:48:49.608Z,46.54
2023-02-13T19:51:18.065Z,46.63
2023-02-13T19:53:45.912Z,47.31
2023-02-13T19:56:13.742Z,46.74
2023-02-13T19:58:43.293Z,46.33
2023-02-13T20:01:12.084Z,47.00
2023-02-13T20:03:39.788Z,47.09
2023-02-13T20:06:08.925Z,46.92
2023-02-13T20:08:36.701Z,46.99
2023-02-13T20:11:04.465Z,47.01
2023-02-13T20:13:32.446Z,47.03
2023-02-13T20:16:02.935Z,47.40
2023-02-13T20:18:30.668Z,47.36
2023-02-13T20:20:59.661Z,47.33
2023-02-13T20:23:27.740Z,47.22
2023-02-13T20:25:55.499Z,47.50
2023-02-13T20:28:23.437Z,47.40
2023-02-13T20:30:51.326Z,47.61
2023-02-13T20:33:20.714Z,47.93
2023-02-13T20:35:48.537Z,47.81
2023-02-13T20:38:16.871Z,47.83
2023-02-13T20:40:44.567Z,48.29
2023-02-13T20:43:12.403Z,47.90
2023-02-13T20:45:40.263Z,47.82
2023-02-13T20:48:08.103Z,48.12
2023-02-13T20:50:37.270Z,48.54
2023-02-13T20:53:05.053Z,48.32
2023-02-13T20:55:32.692Z,48.88
2023-02-13T20:58:00.609Z,48.65
2023-02-13T21:00:28.329Z,48.82
2023-02-13T21:02:56.058Z,49.00
2023-02-13T21:05:23.909Z,49.17
2023-02-13T21:07:53.104Z,48.87
2023-02-13T21:10:20.760Z,49.06
2023-02-13T21:12:48.474Z,49.30
2023-02-13T21:15:16.318Z,49.30
2023-02-13T21:17:44.118Z,49.04
2023-02-13T21:20:12.492Z,49.07
2023-02-13T21:22:40.276Z,49.31
2023-02-13T21:25:09.510Z,49.42
2023-02-13T21:27:37.219Z,49.83
2023-02-13T21:30:05.619Z,49.66
2023-02-13T21:32:33.288Z,49.99
2023-02-13T21:35:01.140Z,49.11
2023-02-13T21:37:30.274Z,49.86
2023-02-13T21:39:58.121Z,50.07
2023-02-13T21:42:27.202Z,49.36
2023-02-13T21:44:55.048Z,49.41
2023-02-13T21:47:23.142Z,49.71
2023-02-13T21:49:50.943Z,49.53
2023-02-13T21:52:18.607Z,49.89
2023-02-13T21:54:46.418Z,50.16
2023-02-13T21:57:14.129Z,50.09
2023-02-13T21:59:43.293Z,50.14
2023-02-13T22:02:11.161Z,49.58
2023-02-13T22:04:39.390Z,50.39
2023-02-13T22:07:07.670Z,49.78
2023-02-13T22:09:35.432Z,50.20
2023-02-13T22:12:04.106Z,49.79
2023-02-13T22:14:31.932Z,49.88
2023-02-13T22:17:00.978Z,50.44
2023-02-13T22:19:28.730Z,50.17
2023-02-13T22:21:56.687Z,50.45
2023-02-13T22:24:24.799Z,50.20
2023-02-13T22:26:52.622Z,50.59
2023-02-13T22:29:22.919Z,51.24
2023-02-13T22:31:50.871Z,50.72
2023-02-13T22:34:20.375Z,50.39
2023-02-13T22:36:48.234Z,50.81
2023-02-13T22:39:15.959Z,51.17
2023-02-13T22:41:45.699Z,51.72
2023-02-13T22:44:13.467Z,50.89
2023-02-13T22:46:41.425Z,51.28
2023-02-13T22:49:09.112Z,50.76
2023-02-13T22:51:38.343Z,51.29
2023-02-13T22:54:06.975Z,51.62
2023-02-13T22:56:34.860Z,51.53
2023-02-13T22:59:02.765Z,50.91
2023-02-13T23:01:30.637Z,50.48
2023-02-13T23:03:58.466Z,52.03
2023-02-13T23:06:26.840Z,51.02
2023-02-13T23:08:57.139Z,51.72
2023-02-13T23:11:44.225Z,50.63
2023-02-13T23:14:12.026Z,51.03
2023-02-13T23:16:57.274Z,51.17
2023-02-13T23:19:27.301Z,50.72
2023-02-13T23:21:55.182Z,50.91
2023-02-13T23:24:24.216Z,51.55
2023-02-13T23:26:52.077Z,51.83
2023-02-13T23:29:19.724Z,51.44
2023-02-13T23:31:48.015Z,51.99
2023-02-13T23:34:15.710Z,51.64
2023-02-13T23:36:43.487Z,51.95
2023-02-13T23:39:11.267Z,52.14
2023-02-13T23:41:40.479Z,52.71
2023-02-13T23:44:08.148Z,52.16
2023-02-13T23:46:36.027Z,51.64
2023-02-13T23:49:05.558Z,52.18
2023-02-13T23:51:34.995Z,51.63
2023-02-13T23:54:03.183Z,51.54
2023-02-13T23:56:31.088Z,51.26
2023-02-13T23:59:00.117Z,51.88
